createdAt,value
2018-03-31T00:00:01.666Z,88.37
2018-03-31T00:15:01.841Z,88.22
2018-03-31T00:25:01.419Z,87.98
2018-03-31T00:30:01.996Z,87.98
2018-03-31T00:35:01.710Z,88.02
2018-03-31T00:45:01.693Z,87.84
2018-03-31T01:00:01.707Z,87.39
2018-03-31T01:15:01.563Z,87.55
2018-03-31T01:30:01.950Z,87.25
2018-03-31T01:45:01.511Z,87.32
2018-03-31T01:50:02.735Z,87.32
2018-03-31T02:00:01.696Z,87.07
2018-03-31T02:05:01.522Z,87.43
2018-03-31T02:15:01.701Z,87.50
2018-03-31T02:30:06.711Z,88.13
2018-03-31T02:45:02.757Z,87.58
2018-03-31T03:00:01.628Z,87.26
2018-03-31T03:05:01.637Z,86.73
2018-03-31T03:15:01.642Z,86.90
2018-03-31T03:30:01.725Z,86.33
2018-03-31T03:45:01.720Z,86.82
2018-03-31T04:00:01.786Z,86.99
2018-03-31T04:15:11.576Z,86.60
2018-03-31T04:30:01.568Z,87.23
2018-03-31T04:40:01.530Z,87.65
2018-03-31T04:45:01.504Z,87.45
2018-03-31T05:00:01.516Z,87.83
2018-03-31T05:15:01.541Z,87.98
2018-03-31T05:30:01.532Z,87.72
2018-03-31T05:45:01.554Z,87.16
2018-03-31T06:00:06.516Z,86.81
2018-03-31T06:15:01.777Z,86.81
2018-03-31T06:25:06.467Z,86.63
2018-03-31T06:30:01.530Z,86.63
2018-03-31T06:45:01.549Z,86.11
2018-03-31T06:55:01.545Z,85.91
2018-03-31T07:00:01.540Z,85.91
2018-03-31T07:05:01.593Z,84.91
2018-03-31T07:15:01.573Z,84.60
2018-03-31T07:25:01.441Z,84.11
2018-03-31T07:30:01.906Z,84.11
2018-03-31T07:40:01.766Z,83.12
2018-03-31T07:45:01.698Z,82.40
2018-03-31T07:50:01.610Z,82.40
2018-03-31T07:55:01.586Z,81.61
2018-03-31T08:00:01.732Z,81.61
2018-03-31T08:05:01.612Z,81.31
2018-03-31T08:15:01.850Z,80.78
2018-03-31T08:30:01.776Z,80.15
2018-03-31T08:35:01.576Z,80.06
2018-03-31T08:45:01.852Z,79.45
2018-03-31T08:50:01.771Z,79.45
2018-03-31T09:00:01.640Z,79.84
2018-03-31T09:05:01.555Z,80.16
2018-03-31T09:10:01.623Z,80.16
2018-03-31T09:15:01.770Z,80.22
2018-03-31T09:30:02.830Z,80.46
2018-03-31T09:45:01.850Z,79.73
2018-03-31T09:55:01.617Z,79.30
2018-03-31T10:00:01.759Z,79.30
2018-03-31T10:06:01.792Z,79.51
2018-03-31T10:16:01.401Z,79.06
2018-03-31T10:31:01.407Z,78.72
2018-03-31T10:46:01.395Z,80.10
2018-03-31T11:01:01.409Z,78.71
2018-03-31T11:06:01.525Z,78.25
2018-03-31T11:16:01.391Z,78.65
2018-03-31T11:31:01.411Z,78.38
2018-03-31T11:36:01.886Z,78.60
2018-03-31T11:41:01.638Z,78.60
2018-03-31T11:56:01.706Z,77.54
2018-03-31T12:12:01.687Z,77.93
2018-03-31T12:22:01.691Z,77.23
2018-03-31T12:37:01.579Z,77.55
2018-03-31T12:42:01.617Z,77.55
2018-03-31T12:52:01.766Z,76.87
2018-03-31T13:02:01.397Z,76.24
2018-03-31T13:12:01.629Z,77.11
2018-03-31T13:22:01.694Z,77.46
2018-03-31T13:32:01.439Z,77.03
2018-03-31T13:48:01.387Z,78.53
2018-03-31T13:53:01.768Z,79.40
2018-03-31T14:03:01.415Z,79.75
2018-03-31T14:18:01.683Z,79.06
2018-03-31T14:28:01.691Z,80.82
2018-03-31T14:33:01.666Z,81.04
2018-03-31T14:43:01.677Z,80.92
2018-03-31T14:53:01.684Z,81.61
2018-03-31T15:08:01.679Z,81.78
2018-03-31T15:18:01.750Z,81.06
2018-03-31T15:23:01.714Z,81.45
2018-03-31T15:38:01.694Z,81.30
2018-03-31T15:53:01.728Z,82.25
2018-03-31T15:58:01.684Z,82.25
2018-03-31T16:13:01.712Z,83.13
2018-03-31T16:28:01.672Z,82.60
2018-03-31T16:33:01.686Z,81.88
2018-03-31T16:48:01.677Z,82.62
2018-03-31T17:03:01.620Z,83.02
2018-03-31T17:18:01.695Z,83.86
2018-03-31T17:33:01.723Z,83.50
2018-03-31T17:48:01.665Z,83.42
2018-03-31T18:04:01.757Z,83.75
2018-03-31T18:14:02.112Z,83.61
2018-03-31T18:29:01.653Z,84.01
2018-03-31T18:34:01.689Z,84.43
2018-03-31T18:50:01.740Z,85.26
2018-03-31T18:55:01.677Z,86.41
2018-03-31T19:00:01.687Z,86.41
2018-03-31T19:10:02.631Z,88.13
2018-03-31T19:15:01.592Z,89.32
2018-03-31T19:20:01.645Z,89.32
2018-03-31T19:30:01.724Z,89.70
2018-03-31T19:45:01.695Z,90.06
2018-03-31T20:00:02.844Z,90.41
2018-03-31T20:05:01.562Z,90.62
2018-03-31T20:15:01.701Z,90.91
2018-03-31T20:30:02.762Z,91.25
2018-03-31T20:45:01.631Z,92.01
2018-03-31T21:00:01.618Z,92.33
2018-03-31T21:16:01.602Z,92.98
2018-03-31T21:31:01.848Z,93.00
2018-03-31T21:41:01.627Z,93.15
2018-03-31T21:56:01.701Z,93.35
2018-03-31T22:11:02.831Z,93.37
2018-03-31T22:21:01.690Z,93.91
2018-03-31T22:36:01.680Z,94.40
2018-03-31T22:41:02.671Z,94.40
2018-03-31T22:56:02.698Z,94.67
2018-03-31T23:11:01.780Z,95.03
2018-03-31T23:21:01.611Z,95.41
2018-03-31T23:36:01.776Z,95.49
2018-03-31T23:51:01.547Z,95.60
